Time;durP1;ratioP1;P1;durP2;ratioP2;P2;SDS_P1;SDS_P2;PMS_P1;PMS_P2;Temp;Humidity;BMP_temperature;BMP_pressure;BME280_temperature;BME280_humidity;BME280_pressure;Samples;Min_cycle;Max_cycle;Signal;HPM_P1;HPM_P2
2022/05/26 00:01:18;;;;;;;8.10;3.63;;;;;;;;;;5091149;28;20038;-70
2022/05/26 00:03:44;;;;;;;8.85;3.70;;;;;;;;;;5091306;28;20032;-68
2022/05/26 00:06:10;;;;;;;5.90;3.55;;;;;;;;;;5091380;28;20040;-69
2022/05/26 00:08:36;;;;;;;5.18;3.80;;;;;;;;;;5073170;28;20032;-70
2022/05/26 00:11:03;;;;;;;5.55;4.28;;;;;;;;;;5091255;28;20541;-69
2022/05/26 00:13:29;;;;;;;5.47;3.40;;;;;;;;;;5073111;28;20403;-70
2022/05/26 00:15:55;;;;;;;8.77;3.50;;;;;;;;;;5091107;28;20083;-69
2022/05/26 00:18:20;;;;;;;7.18;3.80;;;;;;;;;;5091068;28;20068;-69
2022/05/26 00:20:47;;;;;;;8.43;4.00;;;;;;;;;;5072978;28;20122;-70
2022/05/26 00:23:12;;;;;;;4.60;3.70;;;;;;;;;;5091329;28;20039;-69
2022/05/26 00:25:39;;;;;;;4.15;3.75;;;;;;;;;;5090942;28;20411;-68
2022/05/26 00:28:05;;;;;;;4.00;3.35;;;;;;;;;;5090991;28;20504;-70
2022/05/26 00:30:32;;;;;;;7.60;4.10;;;;;;;;;;5090467;28;20047;-69
2022/05/26 00:32:59;;;;;;;5.07;3.60;;;;;;;;;;5090955;28;20032;-69
2022/05/26 00:35:25;;;;;;;6.43;3.50;;;;;;;;;;5089407;28;20135;-70
2022/05/26 00:37:51;;;;;;;3.70;3.40;;;;;;;;;;5055978;28;20028;-70
2022/05/26 00:40:17;;;;;;;5.53;4.10;;;;;;;;;;5072532;28;20043;-69
2022/05/26 00:42:43;;;;;;;7.95;3.83;;;;;;;;;;5090567;28;20525;-70
2022/05/26 00:45:09;;;;;;;5.55;3.78;;;;;;;;;;5072510;28;20060;-69
2022/05/26 00:47:38;;;;;;;4.70;3.67;;;;;;;;;;5072087;28;20063;-68
2022/05/26 00:50:06;;;;;;;4.45;3.58;;;;;;;;;;5072487;28;20127;-69
2022/05/26 00:52:42;;;;;;;4.65;3.58;;;;;;;;;;5090239;28;20415;-69
2022/05/26 00:55:10;;;;;;;3.90;3.63;;;;;;;;;;5072436;28;20044;-70
2022/05/26 00:57:37;;;;;;;7.20;3.95;;;;;;;;;;5072245;28;20032;-69
2022/05/26 01:00:07;;;;;;;8.20;4.15;;;;;;;;;;5072284;28;20066;-69
2022/05/26 01:02:34;;;;;;;4.80;4.10;;;;;;;;;;5088870;28;20035;-68
2022/05/26 01:05:07;;;;;;;5.93;4.93;;;;;;;;;;5090077;28;20039;-69
2022/05/26 01:07:34;;;;;;;4.32;3.92;;;;;;;;;;5055339;28;20418;-69
2022/05/26 01:10:00;;;;;;;8.32;5.10;;;;;;;;;;5072004;28;20118;-69
2022/05/26 01:12:26;;;;;;;5.13;4.57;;;;;;;;;;5072024;28;20476;-70
2022/05/26 01:15:11;;;;;;;5.40;4.57;;;;;;;;;;5090154;28;20130;-69
2022/05/26 01:17:56;;;;;;;5.50;4.38;;;;;;;;;;5087750;28;20499;-71
2022/05/26 01:20:38;;;;;;;7.25;4.90;;;;;;;;;;5089554;28;20035;-69
2022/05/26 01:23:11;;;;;;;6.78;4.45;;;;;;;;;;5090182;28;20427;-71
2022/05/26 01:25:39;;;;;;;7.78;4.88;;;;;;;;;;5088730;28;20039;-69
2022/05/26 01:28:11;;;;;;;4.93;4.40;;;;;;;;;;5090076;28;20028;-70
2022/05/26 01:30:46;;;;;;;4.72;4.20;;;;;;;;;;5089837;28;20096;-69
2022/05/26 01:33:25;;;;;;;5.15;4.63;;;;;;;;;;5072192;28;20047;-69
2022/05/26 01:35:51;;;;;;;5.35;4.70;;;;;;;;;;5055147;28;20191;-68
2022/05/26 01:38:26;;;;;;;7.57;4.13;;;;;;;;;;5090216;28;20136;-68
2022/05/26 01:41:01;;;;;;;5.60;4.32;;;;;;;;;;5072201;28;20043;-69
2022/05/26 01:43:27;;;;;;;10.43;4.60;;;;;;;;;;5071752;28;20032;-71
2022/05/26 01:46:00;;;;;;;6.78;5.00;;;;;;;;;;5089562;28;20044;-69
2022/05/26 01:48:33;;;;;;;8.25;4.78;;;;;;;;;;5089871;28;20032;-69
2022/05/26 01:51:03;;;;;;;10.30;5.25;;;;;;;;;;5072172;28;20495;-69
2022/05/26 01:53:39;;;;;;;10.77;5.40;;;;;;;;;;5071978;28;20129;-69
2022/05/26 01:56:05;;;;;;;9.25;4.82;;;;;;;;;;5071521;28;20539;-69
2022/05/26 01:58:42;;;;;;;5.18;4.63;;;;;;;;;;5089368;28;20035;-69
2022/05/26 02:01:08;;;;;;;10.02;5.50;;;;;;;;;;5071644;28;20539;-69
2022/05/26 02:03:34;;;;;;;5.07;4.40;;;;;;;;;;5071726;28;20492;-71
2022/05/26 02:06:14;;;;;;;8.63;4.97;;;;;;;;;;5055012;28;20214;-69
2022/05/26 02:08:42;;;;;;;7.10;5.25;;;;;;;;;;5089695;28;20170;-69
2022/05/26 02:11:14;;;;;;;8.40;4.95;;;;;;;;;;5071786;28;20515;-70
2022/05/26 02:13:41;;;;;;;5.85;5.07;;;;;;;;;;5071813;28;20032;-70
2022/05/26 02:16:27;;;;;;;5.47;4.97;;;;;;;;;;5089911;28;20425;-71
2022/05/26 02:19:00;;;;;;;10.57;5.03;;;;;;;;;;5088832;28;20612;-71
2022/05/26 02:21:29;;;;;;;7.55;5.10;;;;;;;;;;5088965;28;20040;-69
2022/05/26 02:23:58;;;;;;;8.00;5.10;;;;;;;;;;5089606;28;20028;-70
2022/05/26 02:26:24;;;;;;;6.13;5.15;;;;;;;;;;5069912;28;20083;-71
2022/05/26 02:31:34;;;;;;;5.10;4.60;;;;;;;;;;5089308;28;20070;-71
2022/05/26 02:34:00;;;;;;;7.65;5.22;;;;;;;;;;5090567;28;20399;-70
2022/05/26 02:36:27;;;;;;;7.55;5.13;;;;;;;;;;5090415;28;20055;-72
2022/05/26 02:38:53;;;;;;;5.28;4.68;;;;;;;;;;5071777;28;20492;-71
2022/05/26 02:41:19;;;;;;;6.03;4.50;;;;;;;;;;5089356;28;20032;-72
2022/05/26 02:43:45;;;;;;;5.30;4.70;;;;;;;;;;5070683;28;20052;-72
2022/05/26 02:46:15;;;;;;;12.50;5.05;;;;;;;;;;5089293;28;20036;-71
2022/05/26 02:48:47;;;;;;;8.98;4.70;;;;;;;;;;5089146;28;20036;-72
2022/05/26 02:51:19;;;;;;;10.82;4.88;;;;;;;;;;5054725;28;20036;-71
2022/05/26 02:54:00;;;;;;;10.60;5.43;;;;;;;;;;5087522;28;20024;-72
2022/05/26 02:56:26;;;;;;;;;;;;;;;;;;5089535;28;20523;-72
2022/05/26 02:59:05;;;;;;;4.85;4.45;;;;;;;;;;5091014;28;19912;-72
2022/05/26 03:01:36;;;;;;;5.10;4.65;;;;;;;;;;5091016;28;20032;-72
2022/05/26 03:04:05;;;;;;;5.53;4.97;;;;;;;;;;5074973;28;20043;-73
2022/05/26 03:06:42;;;;;;;5.28;4.78;;;;;;;;;;5074504;28;20036;-72
2022/05/26 03:09:08;;;;;;;12.50;5.30;;;;;;;;;;5074696;28;20040;-72
2022/05/26 03:11:43;;;;;;;7.35;5.82;;;;;;;;;;5074148;28;20032;-72
2022/05/26 03:14:09;;;;;;;9.05;4.68;;;;;;;;;;5092065;28;20044;-72
2022/05/26 03:16:35;;;;;;;5.82;5.32;;;;;;;;;;5092242;28;20036;-72
2022/05/26 03:19:01;;;;;;;7.13;4.50;;;;;;;;;;5092412;28;20039;-72
2022/05/26 03:21:27;;;;;;;11.23;4.85;;;;;;;;;;5074112;28;20039;-73
2022/05/26 03:23:53;;;;;;;10.45;4.90;;;;;;;;;;5092096;28;20074;-72
2022/05/26 03:26:19;;;;;;;7.18;4.93;;;;;;;;;;5092259;28;20059;-70
2022/05/26 03:28:46;;;;;;;9.48;5.03;;;;;;;;;;5092087;28;20273;-72
2022/05/26 03:31:12;;;;;;;15.20;4.90;;;;;;;;;;5074326;28;20036;-71
2022/05/26 03:41:51;;;;;;;18.90;4.97;;;;;;;;;;5090403;28;20523;-72
2022/05/26 03:44:17;;;;;;;5.20;4.70;;;;;;;;;;5066842;28;20076;-73
2022/05/26 03:46:43;;;;;;;10.07;4.60;;;;;;;;;;5051440;28;20101;-73
2022/05/26 03:49:09;;;;;;;10.48;5.65;;;;;;;;;;5051538;28;20040;-73
2022/05/26 03:51:35;;;;;;;5.13;4.57;;;;;;;;;;5066526;28;20040;-73
2022/05/26 03:54:01;;;;;;;7.82;5.00;;;;;;;;;;5052238;28;20112;-72
2022/05/26 03:56:27;;;;;;;8.57;4.95;;;;;;;;;;5066971;28;20041;-73
2022/05/26 03:58:52;;;;;;;7.90;4.95;;;;;;;;;;5051392;28;20033;-72
2022/05/26 04:01:19;;;;;;;12.75;5.57;;;;;;;;;;5051453;28;20040;-72
2022/05/26 04:03:45;;;;;;;8.80;5.38;;;;;;;;;;5050852;28;20028;-72
2022/05/26 04:06:11;;;;;;;15.35;6.03;;;;;;;;;;5051062;28;20508;-71
2022/05/26 04:08:37;;;;;;;9.10;5.95;;;;;;;;;;5051051;28;20040;-70
2022/05/26 04:11:03;;;;;;;11.88;5.38;;;;;;;;;;5051203;28;20029;-72
2022/05/26 04:13:30;;;;;;;6.50;5.50;;;;;;;;;;5050484;28;20033;-74
2022/05/26 04:15:56;;;;;;;6.53;5.05;;;;;;;;;;5050517;28;20055;-71
2022/05/26 04:18:22;;;;;;;9.48;5.40;;;;;;;;;;5051081;28;20040;-72
2022/05/26 04:20:47;;;;;;;8.15;4.95;;;;;;;;;;5049067;28;20044;-72
2022/05/26 04:23:13;;;;;;;10.45;5.03;;;;;;;;;;5050327;28;20036;-70
2022/05/26 04:25:39;;;;;;;9.40;5.72;;;;;;;;;;5050028;28;20045;-73
2022/05/26 04:28:05;;;;;;;8.18;5.70;;;;;;;;;;5050355;28;20037;-70
2022/05/26 04:30:31;;;;;;;14.23;5.10;;;;;;;;;;5050380;28;20120;-71
2022/05/26 04:32:57;;;;;;;5.95;4.22;;;;;;;;;;5049785;28;20033;-72
2022/05/26 04:35:23;;;;;;;7.10;5.43;;;;;;;;;;5050222;28;20049;-72
2022/05/26 04:37:49;;;;;;;10.00;5.18;;;;;;;;;;5050227;28;20083;-73
2022/05/26 04:40:15;;;;;;;7.40;5.40;;;;;;;;;;5049582;28;20509;-73
2022/05/26 04:42:41;;;;;;;12.38;5.20;;;;;;;;;;5049051;28;20116;-73
2022/05/26 04:45:08;;;;;;;6.55;5.82;;;;;;;;;;5082007;28;20600;-72
2022/05/26 04:47:34;;;;;;;7.32;5.85;;;;;;;;;;5090475;28;20031;-75
2022/05/26 04:50:02;;;;;;;6.22;5.25;;;;;;;;;;5090742;28;20028;-73
2022/05/26 04:52:29;;;;;;;11.40;5.25;;;;;;;;;;5072314;28;20032;-72
2022/05/26 04:54:55;;;;;;;9.35;4.55;;;;;;;;;;5090368;28;20039;-74
2022/05/26 04:57:22;;;;;;;7.32;4.78;;;;;;;;;;5090346;28;20036;-73
2022/05/26 04:59:48;;;;;;;7.72;4.88;;;;;;;;;;5055501;28;20407;-74
2022/05/26 05:02:15;;;;;;;7.22;4.60;;;;;;;;;;5072314;28;20048;-74
2022/05/26 05:04:42;;;;;;;11.30;5.70;;;;;;;;;;5090454;28;20036;-72
2022/05/26 05:07:09;;;;;;;11.43;6.00;;;;;;;;;;5089318;28;20081;-73
2022/05/26 05:09:36;;;;;;;7.20;5.65;;;;;;;;;;5088635;28;20036;-73
2022/05/26 05:12:02;;;;;;;8.90;6.47;;;;;;;;;;5090062;28;20071;-73
2022/05/26 05:14:30;;;;;;;6.10;5.20;;;;;;;;;;5090286;28;20044;-72
2022/05/26 05:16:58;;;;;;;5.77;4.53;;;;;;;;;;5072173;28;20143;-74
2022/05/26 05:19:24;;;;;;;9.88;5.18;;;;;;;;;;5088716;28;20691;-74
2022/05/26 05:21:51;;;;;;;8.27;4.85;;;;;;;;;;5086950;28;20035;-73
2022/05/26 05:24:18;;;;;;;11.57;5.18;;;;;;;;;;5088968;28;20542;-73
2022/05/26 05:26:45;;;;;;;14.25;4.93;;;;;;;;;;5089958;28;20365;-72
2022/05/26 05:29:12;;;;;;;5.43;4.93;;;;;;;;;;5072336;28;20051;-72
2022/05/26 05:31:39;;;;;;;5.03;4.50;;;;;;;;;;5089495;28;20031;-75
2022/05/26 05:34:07;;;;;;;8.23;5.22;;;;;;;;;;5088633;28;20036;-73
2022/05/26 05:36:33;;;;;;;6.40;4.55;;;;;;;;;;5089681;28;20415;-74
2022/05/26 05:38:59;;;;;;;10.23;5.90;;;;;;;;;;5071609;28;20043;-73
2022/05/26 05:41:25;;;;;;;7.32;4.95;;;;;;;;;;5089889;28;20100;-73
2022/05/26 05:43:51;;;;;;;9.30;6.53;;;;;;;;;;5088421;28;20052;-73
2022/05/26 05:46:20;;;;;;;9.38;5.43;;;;;;;;;;5090026;28;20132;-73
2022/05/26 05:48:46;;;;;;;8.35;5.35;;;;;;;;;;5091755;28;20028;-71
2022/05/26 05:51:12;;;;;;;7.47;5.88;;;;;;;;;;5088238;28;20089;-71
2022/05/26 05:53:38;;;;;;;6.43;4.80;;;;;;;;;;5089844;28;20028;-71
2022/05/26 05:56:04;;;;;;;7.60;5.25;;;;;;;;;;5071697;28;20055;-73
2022/05/26 05:58:30;;;;;;;8.85;4.90;;;;;;;;;;5089921;28;20503;-71
2022/05/26 06:00:56;;;;;;;7.45;5.30;;;;;;;;;;5089522;28;20514;-73
2022/05/26 06:03:27;;;;;;;7.53;5.57;;;;;;;;;;5072308;28;20056;-72
2022/05/26 06:05:58;;;;;;;7.63;4.60;;;;;;;;;;5071734;28;20047;-71
2022/05/26 06:08:24;;;;;;;7.07;5.13;;;;;;;;;;5071229;28;20036;-72
2022/05/26 06:10:51;;;;;;;6.93;4.18;;;;;;;;;;5083008;28;20445;-71
2022/05/26 06:13:23;;;;;;;5.60;4.38;;;;;;;;;;5082233;28;20039;-72
2022/05/26 06:15:49;;;;;;;5.90;4.57;;;;;;;;;;5087015;28;20031;-71
2022/05/26 06:18:16;;;;;;;10.45;4.70;;;;;;;;;;5106038;28;20031;-71
2022/05/26 06:20:42;;;;;;;8.88;4.82;;;;;;;;;;5098084;28;20054;-73
2022/05/26 06:23:08;;;;;;;5.07;3.92;;;;;;;;;;5095106;28;20181;-70
2022/05/26 06:25:34;;;;;;;7.53;4.82;;;;;;;;;;5095423;28;20126;-70
2022/05/26 06:30:45;;;;;;;12.32;5.03;;;;;;;;;;5097596;28;20119;-72
2022/05/26 06:38:42;;;;;;;7.53;4.43;;;;;;;;;;5093188;28;20036;-70
2022/05/26 06:43:55;;;;;;;8.20;4.07;;;;;;;;;;5101474;28;20040;-71
2022/05/26 06:46:21;;;;;;;3.78;3.15;;;;;;;;;;5092898;28;20044;-72
2022/05/26 06:48:50;;;;;;;7.35;4.40;;;;;;;;;;5084559;28;20097;-72
2022/05/26 06:51:19;;;;;;;6.68;3.55;;;;;;;;;;5083100;28;20144;-72
2022/05/26 06:53:45;;;;;;;7.47;4.30;;;;;;;;;;5073062;28;20130;-71
2022/05/26 06:56:11;;;;;;;6.15;3.88;;;;;;;;;;5102429;28;20035;-72
2022/05/26 06:58:37;;;;;;;6.95;3.75;;;;;;;;;;5100540;28;20039;-71
2022/05/26 07:01:04;;;;;;;8.38;3.50;;;;;;;;;;5089582;28;20032;-72
2022/05/26 07:03:29;;;;;;;7.68;3.78;;;;;;;;;;5087349;28;20498;-71
2022/05/26 07:05:55;;;;;;;6.78;3.70;;;;;;;;;;5100683;28;20044;-71
2022/05/26 07:08:22;;;;;;;4.68;3.40;;;;;;;;;;5085010;28;20028;-71
2022/05/26 07:10:50;;;;;;;8.25;3.42;;;;;;;;;;5101644;28;20380;-73
2022/05/26 07:13:15;;;;;;;5.38;3.20;;;;;;;;;;5092542;28;20027;-72
2022/05/26 07:15:42;;;;;;;3.50;3.20;;;;;;;;;;5099129;28;20089;-72
2022/05/26 07:18:08;;;;;;;3.67;3.38;;;;;;;;;;5100801;28;20035;-72
2022/05/26 07:20:36;;;;;;;5.60;3.40;;;;;;;;;;5100113;28;20036;-73
2022/05/26 07:23:10;;;;;;;7.28;4.38;;;;;;;;;;5102861;28;20031;-73
2022/05/26 07:25:39;;;;;;;4.25;3.40;;;;;;;;;;5100955;28;20480;-73
2022/05/26 07:28:05;;;;;;;5.07;4.57;;;;;;;;;;5095490;28;20032;-71
2022/05/26 07:30:31;;;;;;;4.22;3.20;;;;;;;;;;5099349;28;20503;-71
2022/05/26 07:32:57;;;;;;;7.25;3.60;;;;;;;;;;5095856;28;20036;-72
2022/05/26 07:35:23;;;;;;;8.55;3.92;;;;;;;;;;5080686;28;20035;-72
2022/05/26 07:43:18;;;;;;;7.47;3.00;;;;;;;;;;5101795;28;20027;-73
2022/05/26 07:45:46;;;;;;;9.38;3.50;;;;;;;;;;5104979;28;20050;-72
2022/05/26 07:48:12;;;;;;;6.95;3.53;;;;;;;;;;5062560;28;20028;-72
2022/05/26 07:50:38;;;;;;;4.45;3.25;;;;;;;;;;5073559;28;20574;-70
2022/05/26 07:53:04;;;;;;;4.32;3.10;;;;;;;;;;5082436;28;20558;-70
2022/05/26 07:55:30;;;;;;;3.45;3.15;;;;;;;;;;5061681;28;20119;-71
2022/05/26 07:58:01;;;;;;;7.88;3.08;;;;;;;;;;5052595;28;20040;-73
2022/05/26 08:00:33;;;;;;;7.60;3.20;;;;;;;;;;5073262;28;20050;-71
2022/05/26 08:03:01;;;;;;;3.08;2.88;;;;;;;;;;5071563;28;20038;-72
2022/05/26 08:05:27;;;;;;;3.97;3.08;;;;;;;;;;5072395;28;20040;-72
2022/05/26 08:07:54;;;;;;;3.83;3.15;;;;;;;;;;5091166;28;20036;-72
2022/05/26 08:10:22;;;;;;;5.35;3.55;;;;;;;;;;5073143;28;20538;-72
2022/05/26 08:12:49;;;;;;;6.03;3.28;;;;;;;;;;5090643;28;20504;-72
2022/05/26 08:15:15;;;;;;;5.00;2.70;;;;;;;;;;5073325;28;20589;-71
2022/05/26 08:17:41;;;;;;;8.30;2.67;;;;;;;;;;5091347;28;20044;-71
2022/05/26 08:20:08;;;;;;;3.95;2.97;;;;;;;;;;5073401;28;20036;-70
2022/05/26 08:22:35;;;;;;;8.20;2.60;;;;;;;;;;5088980;28;20032;-72
2022/05/26 08:25:04;;;;;;;5.43;2.70;;;;;;;;;;5089863;28;20036;-71
2022/05/26 08:27:30;;;;;;;11.35;2.72;;;;;;;;;;5090979;28;20673;-71
2022/05/26 08:29:56;;;;;;;6.22;2.75;;;;;;;;;;5090995;28;20036;-71
2022/05/26 08:32:22;;;;;;;9.95;3.22;;;;;;;;;;5073014;28;20056;-71
2022/05/26 08:34:52;;;;;;;4.10;3.08;;;;;;;;;;5090862;28;20177;-72
2022/05/26 08:37:19;;;;;;;5.00;2.53;;;;;;;;;;5056450;28;20032;-71
2022/05/26 08:39:45;;;;;;;5.40;2.95;;;;;;;;;;5091234;28;20035;-71
2022/05/26 08:42:19;;;;;;;4.53;2.85;;;;;;;;;;5072555;28;20035;-72
2022/05/26 08:44:45;;;;;;;5.75;2.63;;;;;;;;;;5072604;28;20043;-71
2022/05/26 08:47:12;;;;;;;8.75;3.28;;;;;;;;;;5090277;28;20031;-71
2022/05/26 08:49:38;;;;;;;6.90;3.22;;;;;;;;;;5072643;28;20419;-72
2022/05/26 08:52:13;;;;;;;3.22;2.50;;;;;;;;;;5049893;28;20048;-72
2022/05/26 08:54:42;;;;;;;8.77;2.83;;;;;;;;;;5072531;28;20036;-70
2022/05/26 08:57:15;;;;;;;5.75;2.92;;;;;;;;;;5071183;28;20058;-71
2022/05/26 08:59:45;;;;;;;3.28;2.80;;;;;;;;;;5090652;28;20123;-69
2022/05/26 09:02:32;;;;;;;2.60;2.40;;;;;;;;;;5074552;28;20028;-70
2022/05/26 09:04:59;;;;;;;5.07;2.90;;;;;;;;;;5090099;28;20085;-71
2022/05/26 09:13:02;;;;;;;6.57;2.47;;;;;;;;;;5074536;28;20040;-72
2022/05/26 09:15:28;;;;;;;5.97;2.90;;;;;;;;;;5090283;28;20028;-71
2022/05/26 09:17:55;;;;;;;8.30;2.75;;;;;;;;;;5090143;28;20032;-72
2022/05/26 09:20:34;;;;;;;4.28;2.60;;;;;;;;;;5090059;28;20032;-71
2022/05/26 09:23:27;;;;;;;4.00;2.72;;;;;;;;;;5071814;28;20031;-71
2022/05/26 09:26:03;;;;;;;6.35;2.70;;;;;;;;;;5086594;28;20052;-72
2022/05/26 09:28:33;;;;;;;3.63;2.75;;;;;;;;;;5089856;28;20097;-71
2022/05/26 09:31:15;;;;;;;8.88;3.13;;;;;;;;;;5071802;28;20038;-71
2022/05/26 09:33:41;;;;;;;13.05;3.10;;;;;;;;;;5071860;28;20484;-71
2022/05/26 09:36:14;;;;;;;5.82;2.95;;;;;;;;;;5089480;28;20063;-71
2022/05/26 09:38:40;;;;;;;8.40;2.80;;;;;;;;;;5089658;28;20032;-71
2022/05/26 09:41:06;;;;;;;6.53;2.70;;;;;;;;;;5089456;28;20518;-72
2022/05/26 09:43:32;;;;;;;4.53;2.60;;;;;;;;;;5089571;28;20111;-71
2022/05/26 09:45:58;;;;;;;4.82;2.60;;;;;;;;;;5089346;28;20075;-71
2022/05/26 09:48:24;;;;;;;4.40;2.72;;;;;;;;;;5071483;28;20088;-72
2022/05/26 09:50:52;;;;;;;5.28;2.65;;;;;;;;;;5089452;28;20082;-72
2022/05/26 09:53:29;;;;;;;4.38;2.92;;;;;;;;;;5071736;28;20024;-71
2022/05/26 09:55:55;;;;;;;5.40;2.33;;;;;;;;;;5071488;28;20040;-71
2022/05/26 09:58:34;;;;;;;4.43;2.65;;;;;;;;;;5089319;28;20031;-71
2022/05/26 10:01:03;;;;;;;2.83;2.47;;;;;;;;;;5089295;28;20519;-72
2022/05/26 10:03:32;;;;;;;3.60;2.50;;;;;;;;;;5071474;28;20161;-72
2022/05/26 10:06:04;;;;;;;2.45;2.25;;;;;;;;;;5089228;28;20415;-71
2022/05/26 10:08:31;;;;;;;4.72;2.47;;;;;;;;;;5074578;28;20032;-71
2022/05/26 10:10:59;;;;;;;3.05;2.42;;;;;;;;;;5093556;28;20408;-72
2022/05/26 10:13:36;;;;;;;2.85;2.47;;;;;;;;;;5093526;28;20059;-71
2022/05/26 10:16:11;;;;;;;2.88;2.38;;;;;;;;;;5058606;28;20032;-71
2022/05/26 10:18:40;;;;;;;4.72;2.53;;;;;;;;;;5093292;28;20043;-72
2022/05/26 10:21:09;;;;;;;10.18;2.60;;;;;;;;;;5093129;28;20459;-72
2022/05/26 10:23:53;;;;;;;4.10;2.80;;;;;;;;;;5093076;28;20151;-72
2022/05/26 10:26:22;;;;;;;3.28;2.70;;;;;;;;;;5091766;28;20048;-71
2022/05/26 10:28:58;;;;;;;4.22;2.40;;;;;;;;;;5091921;28;20101;-71
2022/05/26 10:31:30;;;;;;;5.95;2.63;;;;;;;;;;5058300;28;20035;-71
2022/05/26 10:34:02;;;;;;;2.45;2.30;;;;;;;;;;5092500;28;20035;-71
2022/05/26 10:36:46;;;;;;;4.78;2.70;;;;;;;;;;5093082;28;20048;-72
2022/05/26 10:39:18;;;;;;;6.65;3.05;;;;;;;;;;5074785;28;20028;-72
2022/05/26 10:41:46;;;;;;;5.50;2.85;;;;;;;;;;5091679;28;20051;-71
2022/05/26 10:44:32;;;;;;;2.58;2.30;;;;;;;;;;5074139;28;20074;-71
2022/05/26 10:47:01;;;;;;;3.53;2.15;;;;;;;;;;5057988;28;20055;-71
2022/05/26 10:49:32;;;;;;;2.47;2.25;;;;;;;;;;5074569;28;20024;-71
2022/05/26 10:52:00;;;;;;;5.57;2.45;;;;;;;;;;5074557;28;20066;-71
2022/05/26 10:54:30;;;;;;;2.78;2.58;;;;;;;;;;5074819;28;20453;-71
2022/05/26 10:57:00;;;;;;;6.40;2.93;;;;;;;;;;5092478;28;20063;-72
2022/05/26 10:59:39;;;;;;;5.07;2.30;;;;;;;;;;5074761;28;20710;-71
2022/05/26 11:02:25;;;;;;;3.03;2.65;;;;;;;;;;5091947;28;20043;-71
2022/05/26 11:04:56;;;;;;;3.55;2.58;;;;;;;;;;5043768;28;20059;-71
2022/05/26 11:07:32;;;;;;;2.80;2.40;;;;;;;;;;5092336;28;20036;-71
2022/05/26 11:09:59;;;;;;;2.40;2.30;;;;;;;;;;5091100;28;20040;-71
2022/05/26 11:12:30;;;;;;;3.08;2.42;;;;;;;;;;5092285;28;20042;-71
2022/05/26 11:18:06;;;;;;;2.55;2.35;;;;;;;;;;5032873;28;20044;-71
2022/05/26 11:20:39;;;;;;;6.78;2.90;;;;;;;;;;5074215;28;20032;-72
2022/05/26 11:23:07;;;;;;;3.28;2.72;;;;;;;;;;5095281;28;20032;-72
2022/05/26 11:25:39;;;;;;;3.13;2.53;;;;;;;;;;5094136;28;20071;-71
2022/05/26 11:28:09;;;;;;;2.58;2.25;;;;;;;;;;5077622;28;20439;-73
2022/05/26 11:36:15;;;;;;;4.07;3.42;;;;;;;;;;5111827;28;20039;-72
2022/05/26 11:38:42;;;;;;;3.35;2.80;;;;;;;;;;5093738;28;20030;-71
2022/05/26 11:41:13;;;;;;;4.68;3.80;;;;;;;;;;5093527;28;20051;-71
2022/05/26 11:43:40;;;;;;;2.72;2.53;;;;;;;;;;5094234;28;20104;-71
2022/05/26 11:46:06;;;;;;;4.38;2.65;;;;;;;;;;5111895;28;20044;-71
2022/05/26 11:48:33;;;;;;;4.70;2.65;;;;;;;;;;5093884;28;20084;-71
2022/05/26 11:51:02;;;;;;;6.03;3.03;;;;;;;;;;5112206;28;20060;-71
2022/05/26 11:53:28;;;;;;;2.85;2.50;;;;;;;;;;5093887;28;20028;-70
2022/05/26 11:55:55;;;;;;;3.33;2.28;;;;;;;;;;5111640;28;20071;-71
2022/05/26 11:58:32;;;;;;;6.65;2.70;;;;;;;;;;5093733;28;20036;-72
2022/05/26 12:01:19;;;;;;;4.22;2.80;;;;;;;;;;5093662;28;20062;-73
2022/05/26 12:03:55;;;;;;;4.93;2.33;;;;;;;;;;5091404;28;20036;-71
2022/05/26 12:06:40;;;;;;;3.70;2.72;;;;;;;;;;5089911;28;20052;-71
2022/05/26 12:09:08;;;;;;;5.80;2.65;;;;;;;;;;5090004;28;20028;-71
2022/05/26 12:11:53;;;;;;;4.25;2.53;;;;;;;;;;5073139;28;20032;-72
2022/05/26 12:14:41;;;;;;;3.00;2.70;;;;;;;;;;5090867;28;20507;-71
2022/05/26 12:17:25;;;;;;;3.97;2.58;;;;;;;;;;5090935;28;20058;-72
2022/05/26 12:19:52;;;;;;;3.55;2.50;;;;;;;;;;5090903;28;20411;-72
2022/05/26 12:22:26;;;;;;;7.00;2.47;;;;;;;;;;5090294;28;20143;-72
2022/05/26 12:25:10;;;;;;;3.38;2.38;;;;;;;;;;5072895;28;20077;-72
2022/05/26 12:27:49;;;;;;;3.38;2.53;;;;;;;;;;5072864;28;20414;-72
2022/05/26 12:30:33;;;;;;;2.35;2.00;;;;;;;;;;5090884;28;20085;-71
2022/05/26 12:33:00;;;;;;;3.90;2.50;;;;;;;;;;5090551;28;20044;-72
2022/05/26 12:35:34;;;;;;;2.60;2.40;;;;;;;;;;5072590;28;20112;-71
2022/05/26 12:38:23;;;;;;;3.40;2.50;;;;;;;;;;5055733;28;20040;-72
2022/05/26 12:40:49;;;;;;;3.58;2.63;;;;;;;;;;5090626;28;20533;-71
2022/05/26 12:43:15;;;;;;;3.80;2.30;;;;;;;;;;5090006;28;20093;-72
2022/05/26 12:45:48;;;;;;;3.47;2.20;;;;;;;;;;5090754;28;20040;-71
2022/05/26 12:48:33;;;;;;;2.80;1.88;;;;;;;;;;5088981;28;20035;-71
2022/05/26 12:51:04;;;;;;;3.50;2.60;;;;;;;;;;5090405;28;20503;-71
2022/05/26 12:53:30;;;;;;;4.47;3.45;;;;;;;;;;5089850;28;20036;-72
2022/05/26 12:56:00;;;;;;;2.55;2.33;;;;;;;;;;5090459;28;20118;-71
2022/05/26 12:58:32;;;;;;;6.95;3.13;;;;;;;;;;5090182;28;20036;-71
2022/05/26 13:00:59;;;;;;;4.13;3.30;;;;;;;;;;5089162;28;20032;-71
2022/05/26 13:03:44;;;;;;;4.78;2.53;;;;;;;;;;5090107;28;20122;-72
2022/05/26 13:06:13;;;;;;;11.27;2.80;;;;;;;;;;5071796;28;20047;-71
2022/05/26 13:08:58;;;;;;;6.18;2.92;;;;;;;;;;5072173;28;20028;-71
2022/05/26 13:11:32;;;;;;;6.70;2.33;;;;;;;;;;5071572;28;20096;-71
2022/05/26 13:14:06;;;;;;;4.43;2.65;;;;;;;;;;5090097;28;20038;-73
2022/05/26 13:16:39;;;;;;;4.57;2.50;;;;;;;;;;5089837;28;20526;-72
2022/05/26 13:19:11;;;;;;;8.30;2.60;;;;;;;;;;5071673;28;20032;-72
2022/05/26 13:21:37;;;;;;;4.85;2.40;;;;;;;;;;5089653;28;20042;-72
2022/05/26 13:24:03;;;;;;;9.18;2.65;;;;;;;;;;5071009;28;20415;-71
2022/05/26 13:26:30;;;;;;;4.30;2.30;;;;;;;;;;5071462;28;20048;-72
2022/05/26 13:28:56;;;;;;;4.70;2.40;;;;;;;;;;5089510;28;20032;-71
2022/05/26 13:34:08;;;;;;;7.82;2.50;;;;;;;;;;5089387;28;20032;-71
2022/05/26 13:36:44;;;;;;;4.95;2.72;;;;;;;;;;5054209;28;20044;-71
2022/05/26 13:39:14;;;;;;;3.80;2.20;;;;;;;;;;5081125;28;20052;-72
2022/05/26 13:41:40;;;;;;;4.80;2.85;;;;;;;;;;5090364;28;20126;-72
2022/05/26 13:44:27;;;;;;;6.55;2.95;;;;;;;;;;5035184;28;20060;-72
2022/05/26 13:46:57;;;;;;;3.33;3.08;;;;;;;;;;5069067;28;20098;-72
2022/05/26 13:49:32;;;;;;;3.33;2.30;;;;;;;;;;5068378;28;20059;-72
2022/05/26 13:51:58;;;;;;;10.57;2.97;;;;;;;;;;5069941;28;20561;-71
2022/05/26 13:54:43;;;;;;;5.70;2.47;;;;;;;;;;5069889;28;20040;-71
2022/05/26 13:57:17;;;;;;;3.35;2.20;;;;;;;;;;5068704;28;20028;-72
2022/05/26 13:59:44;;;;;;;2.35;2.17;;;;;;;;;;5069723;28;20471;-72
2022/05/26 14:02:11;;;;;;;4.03;2.45;;;;;;;;;;5069943;28;20416;-71
2022/05/26 14:04:40;;;;;;;3.00;2.72;;;;;;;;;;5069222;28;20127;-72
2022/05/26 14:07:25;;;;;;;5.22;2.70;;;;;;;;;;5069407;28;20059;-71
2022/05/26 14:10:01;;;;;;;2.70;2.50;;;;;;;;;;5068935;28;20032;-72
2022/05/26 14:12:30;;;;;;;4.95;2.92;;;;;;;;;;5085406;28;20504;-72
2022/05/26 14:14:56;;;;;;;3.78;2.90;;;;;;;;;;5070238;28;20047;-71
2022/05/26 14:17:28;;;;;;;3.53;2.80;;;;;;;;;;5070123;28;20032;-71
2022/05/26 14:20:04;;;;;;;6.07;2.85;;;;;;;;;;5069045;28;20531;-72
2022/05/26 14:22:30;;;;;;;5.10;3.00;;;;;;;;;;5068476;28;20086;-72
2022/05/26 14:24:57;;;;;;;4.38;2.65;;;;;;;;;;5068255;28;20079;-71
2022/05/26 14:27:25;;;;;;;7.60;3.08;;;;;;;;;;5067930;28;20044;-70
2022/05/26 14:30:23;;;;;;;;;;;;;;;;;;;;;
2022/05/26 14:33:21;;;;;;;3.05;2.80;;;;;;;;;;5068965;28;20059;-70
2022/05/26 14:35:54;;;;;;;2.95;2.75;;;;;;;;;;5068332;28;20044;-72
2022/05/26 14:38:20;;;;;;;4.63;2.72;;;;;;;;;;5068806;28;20086;-71
2022/05/26 14:40:46;;;;;;;3.00;2.67;;;;;;;;;;5069222;28;20041;-71
2022/05/26 14:43:14;;;;;;;7.43;2.40;;;;;;;;;;5068799;28;20044;-71
2022/05/26 14:45:41;;;;;;;4.80;3.03;;;;;;;;;;5067778;28;20053;-71
2022/05/26 14:48:07;;;;;;;8.65;2.75;;;;;;;;;;5069224;28;20486;-71
2022/05/26 14:50:37;;;;;;;5.75;2.00;;;;;;;;;;5085039;28;20032;-71
2022/05/26 14:53:03;;;;;;;10.30;3.00;;;;;;;;;;5068514;28;20040;-71
2022/05/26 14:55:30;;;;;;;2.40;2.22;;;;;;;;;;5072122;28;20282;-71
2022/05/26 14:58:14;;;;;;;2.25;1.80;;;;;;;;;;5072775;28;20496;-71
2022/05/26 15:00:46;;;;;;;1.83;1.73;;;;;;;;;;5072862;28;20475;-71
2022/05/26 15:03:13;;;;;;;3.45;2.22;;;;;;;;;;5054782;28;20459;-70
2022/05/26 15:05:39;;;;;;;2.10;2.00;;;;;;;;;;5072661;28;20044;-72
2022/05/26 15:08:28;;;;;;;4.75;1.65;;;;;;;;;;5072937;28;20037;-71
2022/05/26 15:10:54;;;;;;;1.60;1.50;;;;;;;;;;5072344;28;20040;-71
2022/05/26 15:13:21;;;;;;;2.03;1.75;;;;;;;;;;5070899;28;20036;-71
2022/05/26 15:15:47;;;;;;;3.38;2.10;;;;;;;;;;5072817;28;20512;-71
2022/05/26 15:18:16;;;;;;;3.92;3.05;;;;;;;;;;5054336;28;20182;-71
2022/05/26 15:20:42;;;;;;;2.67;2.47;;;;;;;;;;5087893;28;20044;-70
2022/05/26 15:23:08;;;;;;;3.53;2.20;;;;;;;;;;5070828;28;20036;-70
2022/05/26 15:26:07;;;;;;;2.00;1.90;;;;;;;;;;5070894;28;20044;-71
2022/05/26 15:28:21;;;;;;;2.63;2.40;;;;;;;;;;5072078;28;20115;-71
2022/05/26 15:30:47;;;;;;;2.58;1.85;;;;;;;;;;5070784;28;20041;-72
2022/05/26 15:33:12;;;;;;;1.75;1.73;;;;;;;;;;5040895;28;20028;-71
2022/05/26 15:35:42;;;;;;;1.92;1.83;;;;;;;;;;5049893;28;20063;-71
2022/05/26 15:38:09;;;;;;;3.55;2.30;;;;;;;;;;5048307;28;20040;-71
2022/05/26 15:40:34;;;;;;;2.88;1.92;;;;;;;;;;5048648;28;20252;-73
2022/05/26 15:43:01;;;;;;;3.38;2.10;;;;;;;;;;5050633;28;20334;-73